Time,TemperatureF,DewpointF,PressureIn,WindDirection,WindDirectionDegrees,WindSpeedMPH,WindSpeedGustMPH,Humidity,HourlyPrecipIn,Conditions,Clouds,dailyrainin,SoftwareType,DateUTC
2013-05-13 00:01:00,49.2,29.9,30.06,WSW,257,2.0,2.0,47,0.00,,---,0.00,VWS V14.01,2013-05-13 04:01:00,
2013-05-13 00:06:00,49.0,31.7,30.06,WSW,257,0.0,2.0,51,0.00,,---,0.00,VWS V14.01,2013-05-13 04:06:00,
2013-05-13 00:11:00,47.8,32.0,30.06,WSW,257,1.0,2.0,54,0.00,,---,0.00,VWS V14.01,2013-05-13 04:11:00,
2013-05-13 00:16:00,46.5,32.1,30.07,WSW,257,1.0,3.0,57,0.00,,---,0.00,VWS V14.01,2013-05-13 04:16:00,
2013-05-13 00:21:00,45.6,32.1,30.07,WSW,257,0.0,3.0,59,0.00,,---,0.00,VWS V14.01,2013-05-13 04:21:00,
2013-05-13 00:26:00,45.0,32.0,30.07,WSW,257,0.0,3.0,60,0.00,,---,0.00,VWS V14.01,2013-05-13 04:26:00,
2013-05-13 00:31:00,44.7,31.7,30.07,WSW,257,0.0,0.0,60,0.00,,---,0.00,VWS V14.01,2013-05-13 04:31:00,
2013-05-13 00:36:00,44.8,31.8,30.07,WSW,257,1.0,3.0,60,0.00,,---,0.00,VWS V14.01,2013-05-13 04:36:00,
2013-05-13 00:41:00,45.0,31.5,30.07,SSW,194,3.0,5.0,59,0.00,,---,0.00,VWS V14.01,2013-05-13 04:41:00,
2013-05-13 00:46:00,45.4,31.5,30.07,South,173,0.0,5.0,58,0.00,,---,0.00,VWS V14.01,2013-05-13 04:46:00,
2013-05-13 00:51:00,45.5,31.2,30.06,SSW,194,0.0,5.0,57,0.00,,---,0.00,VWS V14.01,2013-05-13 04:51:00,
2013-05-13 00:56:00,45.8,31.0,30.06,SSW,194,0.0,5.0,56,0.00,,---,0.00,VWS V14.01,2013-05-13 04:56:00,
2013-05-13 01:01:00,46.0,31.2,30.06,SSW,194,2.0,3.0,56,0.00,,---,0.00,VWS V14.01,2013-05-13 05:01:00,
2013-05-13 01:06:00,46.0,31.6,30.06,SSW,194,0.0,3.0,57,0.00,,---,0.00,VWS V14.01,2013-05-13 05:06:00,
2013-05-13 01:11:00,45.7,31.4,30.06,SSW,194,0.0,3.0,57,0.00,,---,0.00,VWS V14.01,2013-05-13 05:11:00,
2013-05-13 01:16:00,45.6,30.8,30.06,SSW,194,0.0,3.0,56,0.00,,---,0.00,VWS V14.01,2013-05-13 05:16:00,
2013-05-13 01:21:00,45.5,31.6,30.06,SSW,194,0.0,3.0,58,0.00,,---,0.00,VWS V14.01,2013-05-13 05:21:00,
2013-05-13 01:26:00,45.2,31.3,30.06,SSW,194,0.0,3.0,58,0.00,,---,0.00,VWS V14.01,2013-05-13 05:26:00,
2013-05-13 01:31:00,45.0,31.1,30.06,SSW,194,1.0,1.0,58,0.00,,---,0.00,VWS V14.01,2013-05-13 05:31:00,
2013-05-13 01:36:00,44.7,31.7,30.06,SSW,194,0.0,1.0,60,0.00,,---,0.00,VWS V14.01,2013-05-13 05:36:00,
2013-05-13 01:41:00,44.5,31.5,30.06,SSW,199,0.0,3.0,60,0.00,,---,0.00,VWS V14.01,2013-05-13 05:41:00,
2013-05-13 01:46:00,44.3,31.7,30.06,SSW,199,1.0,3.0,61,0.00,,---,0.00,VWS V14.01,2013-05-13 05:46:00,
2013-05-13 01:51:00,44.2,31.6,30.05,SSW,199,2.0,3.0,61,0.00,,---,0.00,VWS V14.01,2013-05-13 05:51:00,
2013-05-13 01:56:00,44.0,31.8,30.05,SSW,199,0.0,3.0,62,0.00,,---,0.00,VWS V14.01,2013-05-13 05:56:00,
2013-05-13 02:01:00,43.6,31.9,30.05,SSW,199,0.0,1.0,63,0.00,,---,0.00,VWS V14.01,2013-05-13 06:01:00,
2013-05-13 02:06:00,43.6,31.9,30.05,SSW,199,0.0,2.0,63,0.00,,---,0.00,VWS V14.01,2013-05-13 06:06:00,
2013-05-13 02:11:00,43.4,32.0,30.05,SSW,199,0.0,2.0,64,0.00,,---,0.00,VWS V14.01,2013-05-13 06:11:00,
2013-05-13 02:16:00,43.2,31.5,30.06,SSW,199,0.0,2.0,63,0.00,,---,0.00,VWS V14.01,2013-05-13 06:16:00,
2013-05-13 02:21:00,43.2,32.2,30.05,SSW,199,0.0,2.0,65,0.00,,---,0.00,VWS V14.01,2013-05-13 06:21:00,
2013-05-13 02:26:00,42.9,32.0,30.06,SSW,199,0.0,2.0,65,0.00,,---,0.00,VWS V14.01,2013-05-13 06:26:00,
2013-05-13 02:31:00,42.5,32.0,30.06,SSW,199,0.0,0.0,66,0.00,,---,0.00,VWS V14.01,2013-05-13 06:31:00,
2013-05-13 02:36:00,42.0,32.2,30.06,SSW,199,0.0,0.0,68,0.00,,---,0.00,VWS V14.01,2013-05-13 06:36:00,
2013-05-13 02:41:00,41.5,31.7,30.06,SSW,199,0.0,1.0,68,0.00,,---,0.00,VWS V14.01,2013-05-13 06:41:00,
2013-05-13 02:46:00,41.2,32.2,30.06,SSW,199,0.0,1.0,70,0.00,,---,0.00,VWS V14.01,2013-05-13 06:46:00,
2013-05-13 02:51:00,40.9,32.6,30.07,SSW,199,0.0,1.0,72,0.00,,---,0.00,VWS V14.01,2013-05-13 06:51:00,
2013-05-13 02:56:00,40.5,32.5,30.07,SSW,199,0.0,1.0,73,0.00,,---,0.00,VWS V14.01,2013-05-13 06:56:00,
2013-05-13 03:01:00,40.2,32.6,30.07,SSW,199,0.0,0.0,74,0.00,,---,0.00,VWS V14.01,2013-05-13 07:01:00,
2013-05-13 03:06:00,39.9,32.6,30.07,SSW,199,0.0,1.0,75,0.00,,---,0.00,VWS V14.01,2013-05-13 07:06:00,
2013-05-13 03:11:00,39.7,32.4,30.07,SSW,199,0.0,1.0,75,0.00,,---,0.00,VWS V14.01,2013-05-13 07:11:00,
2013-05-13 03:16:00,39.5,32.6,30.06,SSW,199,0.0,1.0,76,0.00,,---,0.00,VWS V14.01,2013-05-13 07:16:00,
2013-05-13 03:21:00,39.5,31.9,30.06,SSW,199,0.0,1.0,74,0.00,,---,0.00,VWS V14.01,2013-05-13 07:21:00,
2013-05-13 03:26:00,39.7,32.4,30.06,SSW,199,0.0,1.0,75,0.00,,---,0.00,VWS V14.01,2013-05-13 07:26:00,
2013-05-13 03:31:00,39.6,32.7,30.06,SSW,199,0.0,1.0,76,0.00,,---,0.00,VWS V14.01,2013-05-13 07:31:00,
2013-05-13 03:35:00,39.4,32.8,30.06,SSW,197,0.0,3.0,77,0.00,,---,0.00,VWS V14.01,2013-05-13 07:35:00,
2013-05-13 03:40:00,39.2,32.6,30.06,SSW,196,0.0,3.0,77,0.00,,---,0.00,VWS V14.01,2013-05-13 07:40:00,
2013-05-13 03:45:00,39.3,32.7,30.06,SSW,197,0.0,4.0,77,0.00,,---,0.00,VWS V14.01,2013-05-13 07:45:00,
2013-05-13 03:50:00,39.1,32.5,30.07,SSW,197,0.0,4.0,77,0.00,,---,0.00,VWS V14.01,2013-05-13 07:50:00,
2013-05-13 03:55:00,39.2,32.9,30.06,SSW,196,0.0,4.0,78,0.00,,---,0.00,VWS V14.01,2013-05-13 07:55:00,
2013-05-13 04:00:00,39.2,32.9,30.07,SSW,197,0.0,0.0,78,0.00,,---,0.00,VWS V14.01,2013-05-13 08:00:00,
2013-05-13 04:05:00,39.1,33.2,30.07,SSW,196,0.0,2.0,79,0.00,,---,0.00,VWS V14.01,2013-05-13 08:05:00,
2013-05-13 04:10:00,38.9,33.0,30.07,SSW,197,0.0,2.0,79,0.00,,---,0.00,VWS V14.01,2013-05-13 08:10:00,
2013-05-13 04:15:00,38.9,33.0,30.07,SSW,198,0.0,3.0,79,0.00,,---,0.00,VWS V14.01,2013-05-13 08:15:00,
2013-05-13 04:20:00,38.9,33.0,30.07,SSW,198,0.0,3.0,79,0.00,,---,0.00,VWS V14.01,2013-05-13 08:20:00,
2013-05-13 04:25:00,38.8,33.2,30.07,SSW,198,0.0,3.0,80,0.00,,---,0.00,VWS V14.01,2013-05-13 08:25:00,
2013-05-13 04:30:00,39.0,33.0,30.07,SSW,198,0.0,0.0,79,0.00,,---,0.00,VWS V14.01,2013-05-13 08:30:00,
2013-05-13 04:35:00,39.6,33.0,30.07,SSW,198,0.0,1.0,77,0.00,,---,0.00,VWS V14.01,2013-05-13 08:35:00,
2013-05-13 04:40:00,39.7,33.1,30.07,SSW,198,0.0,2.0,77,0.00,,---,0.00,VWS V14.01,2013-05-13 08:40:00,
2013-05-13 04:45:00,39.2,33.2,30.08,SSW,194,0.0,3.0,79,0.00,,---,0.00,VWS V14.01,2013-05-13 08:45:00,
2013-05-13 04:50:00,38.9,33.0,30.08,SSW,194,0.0,3.0,79,0.00,,---,0.00,VWS V14.01,2013-05-13 08:50:00,
2013-05-13 04:55:00,39.0,33.0,30.08,SSW,194,0.0,3.0,79,0.00,,---,0.00,VWS V14.01,2013-05-13 08:55:00,
2013-05-13 05:00:00,39.1,33.2,30.08,SSW,194,0.0,0.0,79,0.00,,---,0.00,VWS V14.01,2013-05-13 09:00:00,
2013-05-13 05:05:00,38.9,33.0,30.08,SSW,194,0.0,2.0,79,0.00,,---,0.00,VWS V14.01,2013-05-13 09:05:00,
2013-05-13 05:10:00,38.7,33.1,30.08,SSW,194,1.0,2.0,80,0.00,,---,0.00,VWS V14.01,2013-05-13 09:10:00,
2013-05-13 05:15:00,38.4,33.1,30.08,SSW,194,0.0,2.0,81,0.00,,---,0.00,VWS V14.01,2013-05-13 09:15:00,
2013-05-13 05:20:00,38.2,33.2,30.09,SSW,194,0.0,2.0,82,0.00,,---,0.00,VWS V14.01,2013-05-13 09:20:00,
2013-05-13 05:25:00,38.0,33.0,30.09,SSW,194,0.0,2.0,82,0.00,,---,0.00,VWS V14.01,2013-05-13 09:25:00,
2013-05-13 05:30:00,38.0,33.3,30.09,SSW,194,0.0,0.0,83,0.00,,---,0.00,VWS V14.01,2013-05-13 09:30:00,
2013-05-13 05:35:00,37.9,33.2,30.09,SSW,194,0.0,0.0,83,0.00,,---,0.00,VWS V14.01,2013-05-13 09:35:00,
2013-05-13 05:40:00,37.8,33.1,30.09,SSW,194,0.0,0.0,83,0.00,,---,0.00,VWS V14.01,2013-05-13 09:40:00,
2013-05-13 05:45:00,37.7,33.0,30.09,SSW,194,0.0,0.0,83,0.00,,---,0.00,VWS V14.01,2013-05-13 09:45:00,
2013-05-13 05:50:00,37.7,33.0,30.09,SSW,194,0.0,0.0,83,0.00,,---,0.00,VWS V14.01,2013-05-13 09:50:00,
2013-05-13 05:55:00,37.5,33.1,30.09,SSW,194,0.0,1.0,84,0.00,,---,0.00,VWS V14.01,2013-05-13 09:55:00,
2013-05-13 06:00:00,37.5,33.1,30.09,SSW,194,0.0,1.0,84,0.00,,---,0.00,VWS V14.01,2013-05-13 10:00:00,
2013-05-13 06:05:00,37.4,33.0,30.09,SSW,194,0.0,1.0,84,0.00,,---,0.00,VWS V14.01,2013-05-13 10:05:00,
2013-05-13 06:10:00,37.3,33.2,30.10,SSW,194,0.0,1.0,85,0.00,,---,0.00,VWS V14.01,2013-05-13 10:10:00,
2013-05-13 06:15:00,37.2,33.1,30.10,SSW,194,0.0,1.0,85,0.00,,---,0.00,VWS V14.01,2013-05-13 10:15:00,
2013-05-13 06:20:00,37.2,33.4,30.10,SSW,194,0.0,1.0,86,0.00,,---,0.00,VWS V14.01,2013-05-13 10:20:00,
2013-05-13 06:25:00,37.3,33.5,30.10,SSW,194,0.0,1.0,86,0.00,,---,0.00,VWS V14.01,2013-05-13 10:25:00,
2013-05-13 06:30:00,37.5,33.7,30.10,SSW,194,0.0,1.0,86,0.00,,---,0.00,VWS V14.01,2013-05-13 10:30:00,
2013-05-13 06:35:00,37.7,33.9,30.10,SSW,194,0.0,0.0,86,0.00,,---,0.00,VWS V14.01,2013-05-13 10:35:00,
2013-05-13 06:40:00,37.8,34.3,30.10,SSW,194,0.0,0.0,87,0.00,,---,0.00,VWS V14.01,2013-05-13 10:40:00,
2013-05-13 06:45:00,37.9,34.4,30.10,SSW,194,0.0,1.0,87,0.00,,---,0.00,VWS V14.01,2013-05-13 10:45:00,
2013-05-13 06:50:00,38.0,34.5,30.10,SSW,194,0.0,2.0,87,0.00,,---,0.00,VWS V14.01,2013-05-13 10:50:00,
2013-05-13 06:55:00,38.1,34.6,30.10,SSW,194,0.0,2.0,87,0.00,,---,0.00,VWS V14.01,2013-05-13 10:55:00,
2013-05-13 07:00:00,38.2,34.7,30.11,SSW,194,0.0,2.0,87,0.00,,---,0.00,VWS V14.01,2013-05-13 11:00:00,
2013-05-13 07:05:00,38.4,35.2,30.11,SSW,194,1.0,1.0,88,0.00,,---,0.00,VWS V14.01,2013-05-13 11:05:00,
2013-05-13 07:10:00,38.6,35.4,30.11,SSW,194,0.0,2.0,88,0.00,,---,0.00,VWS V14.01,2013-05-13 11:10:00,
2013-05-13 07:15:00,38.9,35.7,30.11,SSW,194,0.0,2.0,88,0.00,,---,0.00,VWS V14.01,2013-05-13 11:15:00,
2013-05-13 07:20:00,39.1,35.8,30.11,SSW,194,0.0,2.0,88,0.00,,---,0.00,VWS V14.01,2013-05-13 11:20:00,
2013-05-13 07:25:00,39.4,36.2,30.11,SSW,194,0.0,2.0,88,0.00,,---,0.00,VWS V14.01,2013-05-13 11:25:00,
2013-05-13 07:30:00,39.5,36.0,30.11,SSW,194,0.0,2.0,87,0.00,,---,0.00,VWS V14.01,2013-05-13 11:30:00,
2013-05-13 07:35:00,39.8,36.2,30.11,SSW,194,0.0,0.0,87,0.00,,---,0.00,VWS V14.01,2013-05-13 11:35:00,
2013-05-13 07:40:00,40.2,36.7,30.11,SSW,194,0.0,0.0,87,0.00,,---,0.00,VWS V14.01,2013-05-13 11:40:00,
2013-05-13 07:45:00,40.6,36.8,30.12,SSW,194,0.0,2.0,86,0.00,,---,0.00,VWS V14.01,2013-05-13 11:45:00,
2013-05-13 07:50:00,41.0,36.8,30.12,SSW,194,1.0,2.0,85,0.00,,---,0.00,VWS V14.01,2013-05-13 11:50:00,
2013-05-13 07:55:00,41.3,36.8,30.12,SSW,194,0.0,2.0,84,0.00,,---,0.00,VWS V14.01,2013-05-13 11:55:00,
2013-05-13 08:00:00,41.7,36.6,30.12,SSW,194,1.0,2.0,82,0.00,,---,0.00,VWS V14.01,2013-05-13 12:00:00,
2013-05-13 08:05:00,42.2,36.5,30.12,SSW,194,1.0,3.0,80,0.00,,---,0.00,VWS V14.01,2013-05-13 12:05:00,
2013-05-13 08:10:00,42.7,36.3,30.13,SSW,200,0.0,3.0,78,0.00,,---,0.00,VWS V14.01,2013-05-13 12:10:00,
2013-05-13 08:15:00,43.2,36.5,30.13,SSW,200,0.0,3.0,77,0.00,,---,0.00,VWS V14.01,2013-05-13 12:15:00,
2013-05-13 08:20:00,43.7,37.0,30.14,SSW,199,0.0,3.0,77,0.00,,---,0.00,VWS V14.01,2013-05-13 12:20:00,
2013-05-13 08:25:00,44.1,37.0,30.14,SSW,200,0.0,3.0,76,0.00,,---,0.00,VWS V14.01,2013-05-13 12:25:00,
2013-05-13 08:30:00,44.4,37.0,30.14,SSW,200,0.0,3.0,75,0.00,,---,0.00,VWS V14.01,2013-05-13 12:30:00,
2013-05-13 08:35:00,44.8,37.4,30.14,SSW,200,0.0,1.0,75,0.00,,---,0.00,VWS V14.01,2013-05-13 12:35:00,
2013-05-13 08:40:00,45.0,37.2,30.14,SSW,200,0.0,1.0,74,0.00,,---,0.00,VWS V14.01,2013-05-13 12:40:00,
2013-05-13 08:45:00,45.4,37.6,30.14,NE,55,0.0,3.0,74,0.00,,---,0.00,VWS V14.01,2013-05-13 12:45:00,
2013-05-13 08:50:00,45.7,38.2,30.15,North,360,3.0,5.0,75,0.00,,---,0.00,VWS V14.01,2013-05-13 12:50:00,
2013-05-13 08:55:00,45.6,37.5,30.15,North,5,0.0,6.0,73,0.00,,---,0.00,VWS V14.01,2013-05-13 12:55:00,
2013-05-13 09:00:00,45.6,37.1,30.15,North,5,1.0,6.0,72,0.00,,---,0.00,VWS V14.01,2013-05-13 13:00:00,
2013-05-13 09:05:00,46.0,37.5,30.16,North,5,2.0,3.0,72,0.00,,---,0.00,VWS V14.01,2013-05-13 13:05:00,
2013-05-13 09:10:00,46.5,37.3,30.15,NW,310,0.0,5.0,70,0.00,,---,0.00,VWS V14.01,2013-05-13 13:10:00,
2013-05-13 09:15:00,47.1,37.1,30.15,North,360,3.0,5.0,68,0.00,,---,0.00,VWS V14.01,2013-05-13 13:15:00,
2013-05-13 09:20:00,47.7,35.7,30.15,North,360,0.0,5.0,63,0.00,,---,0.00,VWS V14.01,2013-05-13 13:20:00,
2013-05-13 09:25:00,48.6,35.8,30.15,North,5,0.0,5.0,61,0.00,,---,0.00,VWS V14.01,2013-05-13 13:25:00,
2013-05-13 09:30:00,48.8,35.1,30.15,North,355,1.0,5.0,59,0.00,,---,0.00,VWS V14.01,2013-05-13 13:30:00,
2013-05-13 09:35:00,49.4,35.3,30.15,SE,140,1.0,4.0,58,0.00,,---,0.00,VWS V14.01,2013-05-13 13:35:00,
2013-05-13 09:40:00,50.1,35.5,30.15,NW,313,2.0,6.0,57,0.00,,---,0.00,VWS V14.01,2013-05-13 13:40:00,
2013-05-13 09:45:00,50.9,34.9,30.15,West,281,3.0,6.0,54,0.00,,---,0.00,VWS V14.01,2013-05-13 13:45:00,
2013-05-13 09:50:00,50.9,34.4,30.15,WNW,300,1.0,7.0,53,0.00,,---,0.00,VWS V14.01,2013-05-13 13:50:00,
2013-05-13 09:54:00,51.0,33.5,30.15,WSW,240,4.0,10.0,51,0.00,,---,0.00,VWS V14.01,2013-05-13 13:54:00,
2013-05-13 09:59:00,50.1,31.7,30.15,WSW,249,3.0,13.0,49,0.00,,---,0.00,VWS V14.01,2013-05-13 13:59:00,
2013-05-13 10:04:00,50.1,32.7,30.15,West,261,2.0,9.0,51,0.00,,---,0.00,VWS V14.01,2013-05-13 14:04:00,
2013-05-13 10:09:00,50.3,32.4,30.15,SW,234,3.0,9.0,50,0.00,,---,0.00,VWS V14.01,2013-05-13 14:09:00,
2013-05-13 10:14:00,50.3,32.9,30.15,WSW,245,3.0,9.0,51,0.00,,---,0.00,VWS V14.01,2013-05-13 14:14:00,
2013-05-13 10:19:00,50.7,34.2,30.14,SSW,212,6.0,9.0,53,0.00,,---,0.00,VWS V14.01,2013-05-13 14:19:00,
2013-05-13 10:24:00,51.2,34.7,30.15,WNW,287,3.0,9.0,53,0.00,,---,0.00,VWS V14.01,2013-05-13 14:24:00,
2013-05-13 10:29:00,51.4,32.4,30.15,South,190,5.0,12.0,48,0.00,,---,0.00,VWS V14.01,2013-05-13 14:29:00,
2013-05-13 10:34:00,51.4,33.4,30.14,WNW,286,7.0,9.0,50,0.00,,---,0.00,VWS V14.01,2013-05-13 14:34:00,
2013-05-13 10:39:00,52.2,34.1,30.14,SW,235,1.0,9.0,50,0.00,,---,0.00,VWS V14.01,2013-05-13 14:39:00,
2013-05-13 10:44:00,52.9,34.8,30.14,West,271,1.0,10.0,50,0.00,,---,0.00,VWS V14.01,2013-05-13 14:44:00,
2013-05-13 10:49:00,52.8,33.7,30.14,SW,227,4.0,12.0,48,0.00,,---,0.00,VWS V14.01,2013-05-13 14:49:00,
2013-05-13 10:54:00,52.8,33.2,30.13,SW,219,5.0,12.0,47,0.00,,---,0.00,VWS V14.01,2013-05-13 14:54:00,
2013-05-13 10:59:00,52.4,31.7,30.13,SSW,199,14.0,14.0,45,0.00,,---,0.00,VWS V14.01,2013-05-13 14:59:00,
2013-05-13 11:04:00,52.0,32.9,30.13,SSE,157,5.0,12.0,48,0.00,,---,0.00,VWS V14.01,2013-05-13 15:04:00,
2013-05-13 11:09:00,51.9,31.8,30.14,SSW,209,6.0,13.0,46,0.00,,---,0.00,VWS V14.01,2013-05-13 15:09:00,
2013-05-13 11:14:00,52.5,31.2,30.14,NW,313,2.0,13.0,44,0.00,,---,0.00,VWS V14.01,2013-05-13 15:14:00,
2013-05-13 11:19:00,52.3,30.5,30.14,WNW,295,3.0,13.0,43,0.00,,---,0.00,VWS V14.01,2013-05-13 15:19:00,
2013-05-13 11:24:00,51.7,28.8,30.14,WNW,300,7.0,13.0,41,0.00,,---,0.00,VWS V14.01,2013-05-13 15:24:00,
2013-05-13 11:29:00,51.8,29.5,30.14,SSW,196,4.0,13.0,42,0.00,,---,0.00,VWS V14.01,2013-05-13 15:29:00,
2013-05-13 11:34:00,52.4,31.1,30.13,SW,216,0.0,4.0,44,0.00,,---,0.00,VWS V14.01,2013-05-13 15:34:00,
2013-05-13 11:39:00,53.3,33.1,30.14,NW,304,7.0,16.0,46,0.00,,---,0.00,VWS V14.01,2013-05-13 15:39:00,
2013-05-13 11:44:00,53.2,30.1,30.13,NNW,348,0.0,16.0,41,0.00,,---,0.00,VWS V14.01,2013-05-13 15:44:00,
2013-05-13 11:49:00,53.3,30.2,30.13,NW,322,8.0,16.0,41,0.00,,---,0.00,VWS V14.01,2013-05-13 15:49:00,
2013-05-13 11:54:00,53.1,28.8,30.13,NW,308,8.0,16.0,39,0.00,,---,0.00,VWS V14.01,2013-05-13 15:54:00,
2013-05-13 11:59:00,53.0,28.7,30.13,WNW,298,5.0,16.0,39,0.00,,---,0.00,VWS V14.01,2013-05-13 15:59:00,
2013-05-13 12:04:00,53.4,28.5,30.13,NNW,336,6.0,12.0,38,0.00,,---,0.00,VWS V14.01,2013-05-13 16:04:00,
2013-05-13 12:09:00,53.9,28.9,30.13,NW,310,7.0,12.0,38,0.00,,---,0.00,VWS V14.01,2013-05-13 16:09:00,
2013-05-13 12:14:00,53.9,28.9,30.13,NW,318,9.0,16.0,38,0.00,,---,0.00,VWS V14.01,2013-05-13 16:14:00,
2013-05-13 12:19:00,53.2,28.9,30.13,NW,315,4.0,16.0,39,0.00,,---,0.00,VWS V14.01,2013-05-13 16:19:00,
2013-05-13 12:24:00,53.0,28.7,30.13,NW,306,8.0,17.0,39,0.00,,---,0.00,VWS V14.01,2013-05-13 16:24:00,
2013-05-13 12:29:00,53.1,27.5,30.14,NW,313,9.0,17.0,37,0.00,,---,0.00,VWS V14.01,2013-05-13 16:29:00,
2013-05-13 12:34:00,52.8,28.5,30.13,NNW,348,10.0,14.0,39,0.00,,---,0.00,VWS V14.01,2013-05-13 16:34:00,
2013-05-13 12:39:00,53.2,29.5,30.13,NW,319,4.0,14.0,40,0.00,,---,0.00,VWS V14.01,2013-05-13 16:39:00,
2013-05-13 12:44:00,53.4,28.5,30.13,NW,319,5.0,15.0,38,0.00,,---,0.00,VWS V14.01,2013-05-13 16:44:00,
2013-05-13 12:49:00,53.7,27.4,30.13,WNW,302,1.0,15.0,36,0.00,,---,0.00,VWS V14.01,2013-05-13 16:49:00,
2013-05-13 12:54:00,53.8,28.8,30.12,West,269,1.0,15.0,38,0.00,,---,0.00,VWS V14.01,2013-05-13 16:54:00,
2013-05-13 12:59:00,54.4,29.3,30.12,NW,315,9.0,15.0,38,0.00,,---,0.00,VWS V14.01,2013-05-13 16:59:00,
2013-05-13 13:04:00,53.8,29.4,30.12,NW,316,5.0,11.0,39,0.00,,---,0.00,VWS V14.01,2013-05-13 17:04:00,
2013-05-13 13:09:00,54.5,28.8,30.12,WSW,247,2.0,12.0,37,0.00,,---,0.00,VWS V14.01,2013-05-13 17:09:00,
2013-05-13 13:14:00,55.3,28.1,30.12,NW,316,0.0,13.0,35,0.00,,---,0.00,VWS V14.01,2013-05-13 17:14:00,
2013-05-13 13:19:00,54.6,27.5,30.12,NW,324,5.0,13.0,35,0.00,,---,0.00,VWS V14.01,2013-05-13 17:19:00,
2013-05-13 13:24:00,54.4,28.7,30.12,NW,315,7.0,13.0,37,0.00,,---,0.00,VWS V14.01,2013-05-13 17:24:00,
2013-05-13 13:29:00,54.6,30.8,30.11,NW,321,6.0,13.0,40,0.00,,---,0.00,VWS V14.01,2013-05-13 17:29:00,
2013-05-13 13:34:00,54.3,28.6,30.12,WNW,297,2.0,13.0,37,0.00,,---,0.00,VWS V14.01,2013-05-13 17:34:00,
2013-05-13 13:39:00,55.2,31.3,30.11,North,360,11.0,13.0,40,0.00,,---,0.00,VWS V14.01,2013-05-13 17:39:00,
2013-05-13 13:44:00,55.4,32.1,30.11,SW,229,9.0,14.0,41,0.00,,---,0.00,VWS V14.01,2013-05-13 17:44:00,
2013-05-13 13:49:00,55.9,30.0,30.11,West,280,3.0,14.0,37,0.00,,---,0.00,VWS V14.01,2013-05-13 17:49:00,
2013-05-13 13:54:00,56.3,32.3,30.11,NNW,335,8.0,14.0,40,0.00,,---,0.00,VWS V14.01,2013-05-13 17:54:00,
2013-05-13 13:59:00,56.1,32.7,30.11,North,350,14.0,15.0,41,0.00,,---,0.00,VWS V14.01,2013-05-13 17:59:00,
2013-05-13 14:04:00,54.8,29.7,30.12,WNW,290,10.0,16.0,38,0.00,,---,0.00,VWS V14.01,2013-05-13 18:04:00,
2013-05-13 14:09:00,54.4,31.8,30.12,WNW,300,3.0,16.0,42,0.00,,---,0.00,VWS V14.01,2013-05-13 18:09:00,
2013-05-13 14:14:00,55.3,30.8,30.12,NNE,15,7.0,16.0,39,0.00,,---,0.00,VWS V14.01,2013-05-13 18:14:00,
2013-05-13 14:19:00,55.7,31.8,30.11,NW,319,7.0,16.0,40,0.00,,---,0.00,VWS V14.01,2013-05-13 18:19:00,
2013-05-13 14:24:00,55.5,29.7,30.11,NNW,342,5.0,16.0,37,0.00,,---,0.00,VWS V14.01,2013-05-13 18:24:00,
2013-05-13 14:29:00,56.0,30.1,30.11,NNW,333,5.0,16.0,37,0.00,,---,0.00,VWS V14.01,2013-05-13 18:29:00,
2013-05-13 14:34:00,56.4,29.1,30.11,NNW,346,7.0,15.0,35,0.00,,---,0.00,VWS V14.01,2013-05-13 18:34:00,
2013-05-13 14:39:00,56.2,30.3,30.11,WNW,292,10.0,18.0,37,0.00,,---,0.00,VWS V14.01,2013-05-13 18:39:00,
2013-05-13 14:44:00,55.7,30.5,30.11,NW,319,5.0,18.0,38,0.00,,---,0.00,VWS V14.01,2013-05-13 18:44:00,
2013-05-13 14:49:00,54.8,30.3,30.11,NW,317,11.0,18.0,39,0.00,,---,0.00,VWS V14.01,2013-05-13 18:49:00,
2013-05-13 14:54:00,54.1,29.1,30.11,NW,315,7.0,18.0,38,0.00,,---,0.00,VWS V14.01,2013-05-13 18:54:00,
2013-05-13 14:59:00,54.6,30.2,30.11,North,355,10.0,18.0,39,0.00,,---,0.00,VWS V14.01,2013-05-13 18:59:00,
2013-05-13 15:04:00,55.3,30.8,30.10,WNW,300,5.0,13.0,39,0.00,,---,0.00,VWS V14.01,2013-05-13 19:04:00,
2013-05-13 15:09:00,55.7,30.5,30.10,NW,324,2.0,16.0,38,0.00,,---,0.00,VWS V14.01,2013-05-13 19:09:00,
2013-05-13 15:14:00,56.0,30.8,30.10,WSW,244,10.0,16.0,38,0.00,,---,0.00,VWS V14.01,2013-05-13 19:14:00,
2013-05-13 15:19:00,57.3,30.6,30.10,WSW,242,15.0,16.0,36,0.00,,---,0.00,VWS V14.01,2013-05-13 19:19:00,
2013-05-13 15:24:00,57.6,32.2,30.09,SW,231,6.0,16.0,38,0.00,,---,0.00,VWS V14.01,2013-05-13 19:24:00,
2013-05-13 15:29:00,57.5,31.5,30.09,WSW,250,4.0,16.0,37,0.00,,---,0.00,VWS V14.01,2013-05-13 19:29:00,
2013-05-13 15:34:00,57.1,31.8,30.10,West,269,8.0,13.0,38,0.00,,---,0.00,VWS V14.01,2013-05-13 19:34:00,
2013-05-13 15:39:00,56.6,30.6,30.09,NNW,329,2.0,16.0,37,0.00,,---,0.00,VWS V14.01,2013-05-13 19:39:00,
2013-05-13 15:44:00,56.8,30.1,30.09,WNW,292,5.0,16.0,36,0.00,,---,0.00,VWS V14.01,2013-05-13 19:44:00,
2013-05-13 15:49:00,56.6,30.6,30.09,NW,325,6.0,19.0,37,0.00,,---,0.00,VWS V14.01,2013-05-13 19:49:00,
2013-05-13 15:54:00,56.6,32.6,30.10,WNW,296,7.0,19.0,40,0.00,,---,0.00,VWS V14.01,2013-05-13 19:54:00,
2013-05-13 15:59:00,56.4,32.4,30.10,NW,306,16.0,19.0,40,0.00,,---,0.00,VWS V14.01,2013-05-13 19:59:00,
2013-05-13 16:04:00,54.3,31.7,30.10,NNW,342,10.0,14.0,42,0.00,,---,0.00,VWS V14.01,2013-05-13 20:04:00,
2013-05-13 16:09:00,53.2,31.9,30.10,North,351,8.0,15.0,44,0.00,,---,0.00,VWS V14.01,2013-05-13 20:09:00,
2013-05-13 16:14:00,52.9,31.6,30.10,NW,321,10.0,16.0,44,0.00,,---,0.00,VWS V14.01,2013-05-13 20:14:00,
2013-05-13 16:19:00,52.5,31.2,30.11,NW,308,6.0,21.0,44,0.00,,---,0.00,VWS V14.01,2013-05-13 20:19:00,
2013-05-13 16:24:00,52.4,31.7,30.11,NNW,347,5.0,21.0,45,0.00,,---,0.00,VWS V14.01,2013-05-13 20:24:00,
2013-05-13 16:29:00,53.6,32.2,30.11,NW,326,12.0,21.0,44,0.00,,---,0.00,VWS V14.01,2013-05-13 20:29:00,
2013-05-13 16:34:00,54.1,32.7,30.10,NW,309,2.0,16.0,44,0.00,,---,0.00,VWS V14.01,2013-05-13 20:34:00,
2013-05-13 16:38:00,54.6,33.1,30.09,NNW,334,6.0,16.0,44,0.00,,---,0.00,VWS V14.01,2013-05-13 20:38:00,
2013-05-13 16:43:00,55.2,32.5,30.09,WNW,286,4.0,16.0,42,0.00,,---,0.00,VWS V14.01,2013-05-13 20:43:00,
2013-05-13 16:48:00,55.6,33.5,30.10,WNW,302,2.0,16.0,43,0.00,,---,0.00,VWS V14.01,2013-05-13 20:48:00,
2013-05-13 16:53:00,55.4,31.5,30.10,North,355,7.0,16.0,40,0.00,,---,0.00,VWS V14.01,2013-05-13 20:53:00,
2013-05-13 16:58:00,54.9,31.7,30.10,WNW,302,7.0,16.0,41,0.00,,---,0.00,VWS V14.01,2013-05-13 20:58:00,
2013-05-13 17:03:00,54.1,30.9,30.10,NNW,344,7.0,10.0,41,0.00,,---,0.00,VWS V14.01,2013-05-13 21:03:00,
2013-05-13 17:08:00,53.8,32.4,30.10,NNW,328,6.0,12.0,44,0.00,,---,0.00,VWS V14.01,2013-05-13 21:08:00,
2013-05-13 17:14:00,53.6,31.7,30.11,North,355,4.0,15.0,43,0.00,,---,0.00,VWS V14.01,2013-05-13 21:14:00,
2013-05-13 17:19:00,54.1,32.7,30.10,NNW,334,2.0,15.0,44,0.00,,---,0.00,VWS V14.01,2013-05-13 21:19:00,
2013-05-13 17:24:00,55.1,32.4,30.10,NW,313,5.0,15.0,42,0.00,,---,0.00,VWS V14.01,2013-05-13 21:24:00,
2013-05-13 17:29:00,55.6,33.5,30.09,North,355,6.0,15.0,43,0.00,,---,0.00,VWS V14.01,2013-05-13 21:29:00,
2013-05-13 17:34:00,56.0,33.2,30.09,NNE,14,2.0,11.0,42,0.00,,---,0.00,VWS V14.01,2013-05-13 21:34:00,
2013-05-13 17:39:00,55.7,33.0,30.09,North,360,5.0,11.0,42,0.00,,---,0.00,VWS V14.01,2013-05-13 21:39:00,
2013-05-13 17:44:00,54.7,32.1,30.10,NNW,333,7.0,16.0,42,0.00,,---,0.00,VWS V14.01,2013-05-13 21:44:00,
2013-05-13 17:49:00,53.7,31.2,30.10,North,355,9.0,16.0,42,0.00,,---,0.00,VWS V14.01,2013-05-13 21:49:00,
2013-05-13 17:54:00,53.2,32.4,30.10,North,355,5.0,16.0,45,0.00,,---,0.00,VWS V14.01,2013-05-13 21:54:00,
2013-05-13 17:59:00,53.2,31.9,30.10,North,360,7.0,16.0,44,0.00,,---,0.00,VWS V14.01,2013-05-13 21:59:00,
2013-05-13 18:03:00,53.3,33.1,30.10,NW,317,10.0,16.0,46,0.00,,---,0.00,VWS V14.01,2013-05-13 22:03:00,
2013-05-13 18:08:00,53.0,32.8,30.10,NNE,31,6.0,16.0,46,0.00,,---,0.00,VWS V14.01,2013-05-13 22:08:00,
2013-05-13 18:13:00,52.6,32.4,30.10,NNW,336,13.0,22.0,46,0.00,,---,0.00,VWS V14.01,2013-05-13 22:13:00,
2013-05-13 18:18:00,52.6,31.9,30.10,NW,321,6.0,22.0,45,0.00,,---,0.00,VWS V14.01,2013-05-13 22:18:00,
2013-05-13 18:23:00,53.3,33.1,30.10,NNE,15,8.0,22.0,46,0.00,,---,0.00,VWS V14.01,2013-05-13 22:23:00,
2013-05-13 18:28:00,53.7,32.3,30.10,NNW,331,11.0,22.0,44,0.00,,---,0.00,VWS V14.01,2013-05-13 22:28:00,
2013-05-13 18:33:00,53.7,31.8,30.10,NNW,336,8.0,17.0,43,0.00,,---,0.00,VWS V14.01,2013-05-13 22:33:00,
2013-05-13 18:38:00,53.5,30.4,30.10,NW,307,12.0,17.0,41,0.00,,---,0.00,VWS V14.01,2013-05-13 22:38:00,
2013-05-13 18:43:00,53.3,30.8,30.10,NNW,342,11.0,17.0,42,0.00,,---,0.00,VWS V14.01,2013-05-13 22:43:00,
2013-05-13 18:48:00,53.2,31.3,30.10,NNW,338,6.0,17.0,43,0.00,,---,0.00,VWS V14.01,2013-05-13 22:48:00,
2013-05-13 18:53:00,53.5,31.6,30.10,NW,319,7.0,17.0,43,0.00,,---,0.00,VWS V14.01,2013-05-13 22:53:00,
2013-05-13 18:58:00,53.5,31.6,30.10,NW,322,3.0,17.0,43,0.00,,---,0.00,VWS V14.01,2013-05-13 22:58:00,
2013-05-13 19:03:00,53.4,31.5,30.10,NNW,342,3.0,9.0,43,0.00,,---,0.00,VWS V14.01,2013-05-13 23:03:00,
2013-05-13 19:08:00,53.3,31.4,30.11,NW,325,7.0,10.0,43,0.00,,---,0.00,VWS V14.01,2013-05-13 23:08:00,
2013-05-13 19:13:00,52.8,31.5,30.11,NW,324,9.0,13.0,44,0.00,,---,0.00,VWS V14.01,2013-05-13 23:13:00,
2013-05-13 19:18:00,52.3,30.5,30.11,NNW,342,10.0,13.0,43,0.00,,---,0.00,VWS V14.01,2013-05-13 23:18:00,
2013-05-13 19:23:00,52.3,30.5,30.11,NW,325,9.0,14.0,43,0.00,,---,0.00,VWS V14.01,2013-05-13 23:23:00,
2013-05-13 19:28:00,52.4,30.6,30.11,WNW,289,4.0,14.0,43,0.00,,---,0.00,VWS V14.01,2013-05-13 23:28:00,
2013-05-13 19:33:00,52.1,30.9,30.11,NW,316,9.0,10.0,44,0.00,,---,0.00,VWS V14.01,2013-05-13 23:33:00,
2013-05-13 19:38:00,51.9,30.7,30.11,NNW,331,6.0,13.0,44,0.00,,---,0.00,VWS V14.01,2013-05-13 23:38:00,
2013-05-13 19:43:00,51.6,29.9,30.12,NNW,338,6.0,15.0,43,0.00,,---,0.00,VWS V14.01,2013-05-13 23:43:00,
2013-05-13 19:48:00,51.4,30.8,30.12,NW,320,6.0,15.0,45,0.00,,---,0.00,VWS V14.01,2013-05-13 23:48:00,
2013-05-13 19:53:00,51.3,30.7,30.12,NW,323,5.0,15.0,45,0.00,,---,0.00,VWS V14.01,2013-05-13 23:53:00,
2013-05-13 19:58:00,51.2,30.0,30.12,NW,306,6.0,15.0,44,0.00,,---,0.00,VWS V14.01,2013-05-13 23:58:00,
2013-05-13 20:03:00,50.9,30.3,30.12,WNW,294,2.0,11.0,45,0.00,,---,0.00,VWS V14.01,2013-05-14 00:03:00,
2013-05-13 20:08:00,50.6,30.6,30.12,NW,321,4.0,11.0,46,0.00,,---,0.00,VWS V14.01,2013-05-14 00:08:00,
2013-05-13 20:13:00,50.3,30.3,30.12,NNW,335,3.0,11.0,46,0.00,,---,0.00,VWS V14.01,2013-05-14 00:13:00,
2013-05-13 20:18:00,50.1,30.7,30.13,North,350,5.0,12.0,47,0.00,,---,0.00,VWS V14.01,2013-05-14 00:18:00,
2013-05-13 20:23:00,49.7,31.3,30.13,NNW,333,3.0,12.0,49,0.00,,---,0.00,VWS V14.01,2013-05-14 00:23:00,
2013-05-13 20:28:00,49.4,31.1,30.14,NNW,334,4.0,12.0,49,0.00,,---,0.00,VWS V14.01,2013-05-14 00:28:00,
2013-05-13 20:33:00,49.1,31.3,30.14,NNW,333,2.0,6.0,50,0.00,,---,0.00,VWS V14.01,2013-05-14 00:33:00,
2013-05-13 20:38:00,48.8,31.5,30.14,NNW,336,2.0,6.0,51,0.00,,---,0.00,VWS V14.01,2013-05-14 00:38:00,
2013-05-13 20:43:00,48.5,31.7,30.15,NW,319,2.0,6.0,52,0.00,,---,0.00,VWS V14.01,2013-05-14 00:43:00,
2013-05-13 20:48:00,48.3,31.5,30.15,NW,319,1.0,6.0,52,0.00,,---,0.00,VWS V14.01,2013-05-14 00:48:00,
2013-05-13 20:53:00,48.4,31.1,30.15,NNW,345,0.0,9.0,51,0.00,,---,0.00,VWS V14.01,2013-05-14 00:53:00,
2013-05-13 20:58:00,48.2,31.4,30.15,NNW,340,2.0,9.0,52,0.00,,---,0.00,VWS V14.01,2013-05-14 00:58:00,
2013-05-13 21:03:00,48.3,31.0,30.15,WNW,283,0.0,4.0,51,0.00,,---,0.00,VWS V14.01,2013-05-14 01:03:00,
2013-05-13 21:08:00,48.2,31.4,30.16,WNW,283,1.0,4.0,52,0.00,,---,0.00,VWS V14.01,2013-05-14 01:08:00,
2013-05-13 21:13:00,48.0,31.2,30.16,WNW,283,1.0,4.0,52,0.00,,---,0.00,VWS V14.01,2013-05-14 01:13:00,
2013-05-13 21:18:00,47.8,31.0,30.16,WNW,283,1.0,4.0,52,0.00,,---,0.00,VWS V14.01,2013-05-14 01:18:00,
2013-05-13 21:23:00,47.5,30.8,30.16,WSW,238,1.0,4.0,52,0.00,,---,0.00,VWS V14.01,2013-05-14 01:23:00,
2013-05-13 21:28:00,47.3,30.6,30.17,WSW,242,0.0,4.0,52,0.00,,---,0.00,VWS V14.01,2013-05-14 01:28:00,
2013-05-13 21:33:00,47.1,30.4,30.17,WSW,242,0.0,0.0,52,0.00,,---,0.00,VWS V14.01,2013-05-14 01:33:00,
2013-05-13 21:38:00,46.9,30.2,30.18,WSW,242,0.0,2.0,52,0.00,,---,0.00,VWS V14.01,2013-05-14 01:38:00,
2013-05-13 21:43:00,47.0,30.8,30.18,North,355,0.0,7.0,53,0.00,,---,0.00,VWS V14.01,2013-05-14 01:43:00,
2013-05-13 21:48:00,47.1,30.9,30.18,North,355,0.0,7.0,53,0.00,,---,0.00,VWS V14.01,2013-05-14 01:48:00,
2013-05-13 21:53:00,46.9,30.7,30.18,North,355,0.0,7.0,53,0.00,,---,0.00,VWS V14.01,2013-05-14 01:53:00,
2013-05-13 21:58:00,46.7,30.5,30.18,North,355,0.0,7.0,53,0.00,,---,0.00,VWS V14.01,2013-05-14 01:58:00,
2013-05-13 22:03:00,46.4,30.2,30.18,South,169,1.0,6.0,53,0.00,,---,0.00,VWS V14.01,2013-05-14 02:03:00,
2013-05-13 22:08:00,46.5,29.8,30.19,SW,233,1.0,6.0,52,0.00,,---,0.00,VWS V14.01,2013-05-14 02:08:00,
2013-05-13 22:13:00,46.4,30.2,30.19,SW,233,0.0,6.0,53,0.00,,---,0.00,VWS V14.01,2013-05-14 02:13:00,
2013-05-13 22:18:00,46.3,30.6,30.19,SW,233,0.0,6.0,54,0.00,,---,0.00,VWS V14.01,2013-05-14 02:18:00,
2013-05-13 22:23:00,46.1,30.4,30.19,SW,233,0.0,6.0,54,0.00,,---,0.00,VWS V14.01,2013-05-14 02:23:00,
2013-05-13 22:28:00,46.0,30.3,30.19,WSW,245,0.0,6.0,54,0.00,,---,0.00,VWS V14.01,2013-05-14 02:28:00,
2013-05-13 22:33:00,46.0,30.3,30.19,WSW,246,0.0,1.0,54,0.00,,---,0.00,VWS V14.01,2013-05-14 02:33:00,
2013-05-13 22:38:00,45.9,29.8,30.19,WSW,246,0.0,1.0,53,0.00,,---,0.00,VWS V14.01,2013-05-14 02:38:00,
2013-05-13 22:43:00,45.8,30.1,30.19,WSW,246,0.0,1.0,54,0.00,,---,0.00,VWS V14.01,2013-05-14 02:43:00,
2013-05-13 22:48:00,45.6,30.8,30.19,WSW,246,0.0,1.0,56,0.00,,---,0.00,VWS V14.01,2013-05-14 02:48:00,
2013-05-13 22:53:00,45.0,30.7,30.19,WSW,245,0.0,1.0,57,0.00,,---,0.00,VWS V14.01,2013-05-14 02:53:00,
2013-05-13 22:58:00,44.4,31.4,30.20,WSW,246,0.0,1.0,60,0.00,,---,0.00,VWS V14.01,2013-05-14 02:58:00,
2013-05-13 23:03:00,43.9,30.9,30.20,NE,44,0.0,1.0,60,0.00,,---,0.00,VWS V14.01,2013-05-14 03:03:00,
2013-05-13 23:08:00,43.7,31.1,30.20,NE,44,0.0,1.0,61,0.00,,---,0.00,VWS V14.01,2013-05-14 03:08:00,
2013-05-13 23:13:00,43.5,31.0,30.20,NE,44,0.0,1.0,61,0.00,,---,0.00,VWS V14.01,2013-05-14 03:13:00,
2013-05-13 23:18:00,43.3,31.2,30.20,NE,44,0.0,1.0,62,0.00,,---,0.00,VWS V14.01,2013-05-14 03:18:00,
2013-05-13 23:23:00,43.0,30.5,30.20,NE,44,0.0,1.0,61,0.00,,---,0.00,VWS V14.01,2013-05-14 03:23:00,
2013-05-13 23:28:00,42.9,30.8,30.20,NE,44,0.0,1.0,62,0.00,,---,0.00,VWS V14.01,2013-05-14 03:28:00,
2013-05-13 23:33:00,42.8,30.7,30.20,NNW,333,0.0,3.0,62,0.00,,---,0.00,VWS V14.01,2013-05-14 03:33:00,
2013-05-13 23:38:00,43.0,30.9,30.20,NW,319,0.0,3.0,62,0.00,,---,0.00,VWS V14.01,2013-05-14 03:38:00,
2013-05-13 23:43:00,43.0,30.9,30.20,NW,320,0.0,3.0,62,0.00,,---,0.00,VWS V14.01,2013-05-14 03:43:00,
2013-05-13 23:48:00,42.8,31.1,30.20,NW,320,0.0,3.0,63,0.00,,---,0.00,VWS V14.01,2013-05-14 03:48:00,
2013-05-13 23:53:00,42.7,31.0,30.20,NW,320,0.0,3.0,63,0.00,,---,0.00,VWS V14.01,2013-05-14 03:53:00,
2013-05-13 23:58:00,42.5,31.2,30.20,NW,320,0.0,3.0,64,0.00,,---,0.00,VWS V14.01,2013-05-14 03:58:00,